Time;durP1;ratioP1;P1;durP2;ratioP2;P2;SDS_P1;SDS_P2;PMS_P1;PMS_P2;Temp;Humidity;BMP_temperature;BMP_pressure;BME280_temperature;BME280_humidity;BME280_pressure;Samples;Min_cycle;Max_cycle;Signal;HPM_P1;HPM_P2
2022/12/08 05:05:22;;;;;;;5.63;4.55;;;-0.50;99.90;;;;;;5176809;23;20233;-62
2022/12/08 05:07:47;;;;;;;6.90;2.90;;;-0.50;99.90;;;;;;4919037;29;20177;-62
2022/12/08 05:10:13;;;;;;;6.80;4.53;;;-0.60;99.90;;;;;;4919190;29;20194;-61
2022/12/08 05:12:38;;;;;;;8.50;5.17;;;-0.60;99.90;;;;;;4918865;29;20213;-62
2022/12/08 05:15:05;;;;;;;4.70;4.30;;;-0.70;99.90;;;;;;4918707;29;20205;-61
2022/12/08 05:17:30;;;;;;;4.53;4.10;;;-0.80;99.90;;;;;;4919012;29;20175;-62
2022/12/08 05:19:56;;;;;;;11.87;6.20;;;-0.80;99.90;;;;;;4918982;29;20193;-61
2022/12/08 05:22:21;;;;;;;9.07;7.40;;;-0.90;99.90;;;;;;4918574;29;20183;-62
2022/12/08 05:24:47;;;;;;;10.07;5.83;;;-0.90;99.90;;;;;;4917983;29;20207;-62
2022/12/08 05:27:12;;;;;;;9.00;5.80;;;-0.90;99.90;;;;;;4918551;29;20661;-63
2022/12/08 05:29:38;;;;;;;5.97;5.30;;;-0.90;99.90;;;;;;4918544;29;20179;-63
2022/12/08 05:32:04;;;;;;;6.23;5.40;;;-0.90;99.90;;;;;;4918617;29;20187;-63
2022/12/08 05:34:29;;;;;;;8.50;4.40;;;-0.90;99.90;;;;;;4916756;29;20693;-62
2022/12/08 05:36:55;;;;;;;7.67;4.13;;;-0.90;99.90;;;;;;4918336;29;20213;-63
2022/12/08 05:39:20;;;;;;;7.93;4.43;;;-0.90;99.90;;;;;;4918100;29;20196;-63
2022/12/08 05:41:46;;;;;;;8.47;5.37;;;-0.90;99.90;;;;;;4918319;29;20185;-62
2022/12/08 05:44:12;;;;;;;6.33;4.63;;;-0.90;99.90;;;;;;4918134;29;20198;-62
2022/12/08 05:46:37;;;;;;;8.87;5.80;;;-0.90;99.90;;;;;;4918282;29;20256;-62
2022/12/08 05:49:03;;;;;;;5.37;4.83;;;-0.90;99.90;;;;;;4916712;29;20213;-61
2022/12/08 05:51:29;;;;;;;8.70;4.20;;;-0.90;99.90;;;;;;4917711;29;20210;-62
2022/12/08 05:53:55;;;;;;;5.30;4.00;;;-0.90;99.90;;;;;;4918004;29;20216;-62
2022/12/08 05:59:38;;;;;;;4.82;2.88;;;-1.00;99.90;;;;;;4897552;29;20185;-63
2022/12/08 06:02:04;;;;;;;5.83;4.20;;;-1.00;99.90;;;;;;4918168;29;20575;-61
2022/12/08 06:04:30;;;;;;;9.90;4.90;;;-1.00;99.90;;;;;;4917676;29;20233;-62
2022/12/08 06:06:55;;;;;;;6.30;4.73;;;-1.00;99.90;;;;;;4917839;29;20190;-62
2022/12/08 06:09:21;;;;;;;6.73;5.63;;;-1.00;99.90;;;;;;4918270;29;20182;-62
2022/12/08 06:11:46;;;;;;;6.60;5.00;;;-1.00;99.90;;;;;;4916751;29;20258;-64
2022/12/08 06:14:12;;;;;;;9.53;4.90;;;-1.10;99.90;;;;;;4917263;29;20213;-63
2022/12/08 06:16:38;;;;;;;5.83;3.27;;;-1.10;99.90;;;;;;4917807;29;20170;-62
2022/12/08 06:19:03;;;;;;;5.53;4.23;;;-1.00;99.90;;;;;;4917479;29;20178;-62
2022/12/08 06:21:38;;;;;;;7.47;5.63;;;-1.10;99.90;;;;;;5070778;28;20579;-63
2022/12/08 06:24:04;;;;;;;8.33;4.90;;;-1.10;99.90;;;;;;5069080;28;20205;-62
2022/12/08 06:26:30;;;;;;;5.37;4.57;;;-1.10;99.90;;;;;;5070623;28;20527;-62
2022/12/08 06:28:55;;;;;;;5.30;3.00;;;-1.10;99.90;;;;;;5070719;28;20581;-62
2022/12/08 06:31:23;;;;;;;10.40;4.90;;;-1.10;99.90;;;;;;5070561;28;20204;-62
2022/12/08 06:33:49;;;;;;;9.60;5.05;;;-1.10;99.90;;;;;;5070245;28;20550;-63
2022/12/08 06:36:17;;;;;;;8.60;5.70;;;-1.10;99.90;;;;;;5070582;28;20169;-63
2022/12/08 06:38:43;;;;;;;9.18;5.40;;;-1.20;99.90;;;;;;5070390;28;20410;-62
2022/12/08 06:41:08;;;;;;;7.27;5.10;;;-1.20;99.90;;;;;;5070240;28;20207;-62
2022/12/08 06:43:34;;;;;;;8.90;5.20;;;-1.20;99.90;;;;;;5069881;28;20171;-62
2022/12/08 06:46:01;;;;;;;6.60;3.97;;;-1.20;99.90;;;;;;5070290;28;20186;-61
2022/12/08 06:48:26;;;;;;;6.63;4.72;;;-1.20;99.90;;;;;;5070203;28;20180;-60
2022/12/08 06:50:52;;;;;;;5.37;4.37;;;-1.20;99.90;;;;;;5070153;28;20165;-62
2022/12/08 06:56:51;;;;;;;6.35;4.20;;;-1.20;99.90;;;;;;5043257;28;20184;-62
2022/12/08 06:59:18;;;;;;;7.50;4.77;;;-1.20;99.90;;;;;;5069936;28;20646;-63
2022/12/08 07:01:44;;;;;;;6.30;4.68;;;-1.20;99.90;;;;;;5070141;28;20275;-62
2022/12/08 07:04:10;;;;;;;9.52;5.55;;;-1.30;99.90;;;;;;5069577;28;20216;-65
2022/12/08 07:06:35;;;;;;;6.40;4.90;;;-1.30;99.90;;;;;;5069866;28;20166;-64
2022/12/08 07:09:01;;;;;;;6.10;4.97;;;-1.30;99.90;;;;;;5069688;28;20554;-68
2022/12/08 07:11:26;;;;;;;12.90;5.33;;;-1.30;99.90;;;;;;5069719;28;20640;-66
2022/12/08 07:13:55;;;;;;;6.20;4.60;;;-1.30;99.90;;;;;;5067930;28;20284;-62
2022/12/08 07:16:21;;;;;;;7.53;4.95;;;-1.20;99.90;;;;;;5070038;28;20267;-62
2022/12/08 07:18:46;;;;;;;5.13;4.70;;;-1.10;99.90;;;;;;5069724;28;20206;-61
2022/12/08 07:21:16;;;;;;;11.80;5.00;;;-1.10;99.90;;;;;;5069219;28;20217;-62
2022/12/08 07:23:44;;;;;;;14.68;5.45;;;-1.10;99.90;;;;;;5068990;28;20282;-63
2022/12/08 07:26:11;;;;;;;10.63;7.65;;;-1.00;99.90;;;;;;5069324;28;20188;-61
2022/12/08 07:28:39;;;;;;;5.60;5.05;;;-1.00;99.90;;;;;;5069564;28;20542;-65
2022/12/08 07:31:06;;;;;;;10.65;6.97;;;-0.90;99.90;;;;;;5066908;28;20169;-62
2022/12/08 07:33:33;;;;;;;11.50;5.90;;;-0.70;99.90;;;;;;5056001;28;20228;-62
2022/12/08 07:36:03;;;;;;;13.20;7.30;;;-0.50;99.90;;;;;;5056038;28;20184;-62
2022/12/08 07:38:29;;;;;;;11.43;6.05;;;-0.40;99.90;;;;;;5057417;28;20161;-63
2022/12/08 07:40:55;;;;;;;7.18;5.50;;;-0.30;99.90;;;;;;5056422;28;20211;-62
2022/12/08 07:43:22;;;;;;;9.82;6.57;;;-0.20;99.90;;;;;;5056146;28;20172;-63
2022/12/08 07:45:48;;;;;;;9.55;6.65;;;-0.20;99.90;;;;;;5056240;28;20173;-63
2022/12/08 07:48:14;;;;;;;6.75;5.63;;;-0.20;99.90;;;;;;5056044;28;20177;-63
2022/12/08 07:50:40;;;;;;;11.50;7.20;;;-0.10;99.90;;;;;;5055933;28;20246;-63
2022/12/08 07:53:06;;;;;;;8.17;5.97;;;-0.20;99.90;;;;;;5055564;28;20170;-62
2022/12/08 07:55:32;;;;;;;8.97;5.67;;;-0.10;99.90;;;;;;5055731;28;20452;-63
2022/12/08 07:57:57;;;;;;;10.50;7.57;;;-0.20;99.90;;;;;;5055835;28;20872;-62
2022/12/08 08:00:23;;;;;;;9.23;6.90;;;-0.20;99.90;;;;;;5055827;28;20451;-61
2022/12/08 08:02:49;;;;;;;8.57;6.97;;;-0.20;99.90;;;;;;5055367;28;20508;-62
2022/12/08 08:05:14;;;;;;;13.17;7.60;;;-0.20;99.90;;;;;;5055603;28;20196;-62
2022/12/08 08:07:42;;;;;;;6.70;5.90;;;-0.20;99.90;;;;;;5050457;28;20664;-63
2022/12/08 08:10:09;;;;;;;8.73;6.40;;;-0.10;99.90;;;;;;5043225;28;20183;-61
2022/12/08 08:12:35;;;;;;;15.35;7.65;;;0.10;99.90;;;;;;5055430;28;20176;-64
2022/12/08 08:15:02;;;;;;;10.85;8.30;;;0.40;99.90;;;;;;5054790;28;20182;-61
2022/12/08 08:17:28;;;;;;;13.75;9.70;;;0.90;99.90;;;;;;5053844;28;20204;-62
2022/12/08 08:19:54;;;;;;;18.98;11.02;;;1.50;99.90;;;;;;5035076;28;20205;-61
2022/12/08 08:22:20;;;;;;;17.77;11.67;;;2.30;99.90;;;;;;5035401;28;20169;-62
2022/12/08 08:24:45;;;;;;;18.50;13.30;;;3.00;99.90;;;;;;5034795;28;20188;-61
2022/12/08 08:27:11;;;;;;;19.63;13.10;;;3.80;99.90;;;;;;5035331;28;20219;-62
2022/12/08 08:29:37;;;;;;;17.92;11.25;;;4.50;99.90;;;;;;5036518;28;20173;-62
2022/12/08 08:32:02;;;;;;;10.30;7.10;;;5.10;99.90;;;;;;5036723;28;20646;-63
2022/12/08 08:34:28;;;;;;;7.67;5.77;;;5.70;99.90;;;;;;5034667;28;20279;-63
2022/12/08 08:36:54;;;;;;;7.07;6.37;;;6.20;99.90;;;;;;5035213;28;20213;-63
2022/12/08 08:39:19;;;;;;;7.40;6.70;;;6.70;99.90;;;;;;5035162;28;20256;-63
2022/12/08 08:41:45;;;;;;;5.70;5.10;;;7.10;99.90;;;;;;5035124;28;20189;-63
2022/12/08 08:44:13;;;;;;;4.93;4.47;;;7.60;99.90;;;;;;5033291;28;20238;-63
2022/12/08 08:46:39;;;;;;;5.00;4.50;;;7.90;99.90;;;;;;5034872;28;20172;-62
2022/12/08 08:49:05;;;;;;;4.90;4.33;;;8.00;99.90;;;;;;5034746;28;20408;-63
2022/12/08 08:51:31;;;;;;;5.23;4.83;;;8.10;99.90;;;;;;5034792;28;20419;-63
2022/12/08 08:53:56;;;;;;;5.77;4.60;;;8.30;99.90;;;;;;5034370;28;20208;-64
2022/12/08 08:56:23;;;;;;;5.00;4.60;;;8.60;99.90;;;;;;5034805;28;20581;-63
2022/12/08 08:58:50;;;;;;;6.53;4.93;;;8.90;99.90;;;;;;5036495;28;20453;-63
2022/12/08 09:01:17;;;;;;;7.27;5.60;;;9.10;99.90;;;;;;5054418;28;20858;-64
2022/12/08 09:03:44;;;;;;;5.37;4.87;;;9.40;99.90;;;;;;5054180;28;20437;-63
2022/12/08 09:06:10;;;;;;;6.33;4.93;;;9.70;99.90;;;;;;5054480;28;20396;-63
2022/12/08 09:08:36;;;;;;;5.70;4.60;;;9.90;99.90;;;;;;5039804;28;20408;-63
2022/12/08 09:11:01;;;;;;;5.73;5.07;;;10.10;99.90;;;;;;5034311;28;20429;-64
2022/12/08 09:13:27;;;;;;;5.80;5.20;;;10.20;99.90;;;;;;5033886;28;20178;-64
2022/12/08 09:15:53;;;;;;;7.10;5.43;;;10.40;99.20;;;;;;5034370;28;20177;-63
2022/12/08 09:18:18;;;;;;;6.73;5.97;;;10.50;98.20;;;;;;5034223;28;20181;-62
2022/12/08 09:20:44;;;;;;;9.07;6.47;;;10.60;97.50;;;;;;5034052;28;20205;-63
2022/12/08 09:23:09;;;;;;;6.53;5.83;;;10.60;96.70;;;;;;5033693;28;20167;-62
2022/12/08 09:25:35;;;;;;;5.10;4.60;;;10.50;95.90;;;;;;5034131;28;20193;-64
2022/12/08 09:28:00;;;;;;;7.90;6.00;;;10.30;95.90;;;;;;5034172;28;20175;-63
2022/12/08 09:30:26;;;;;;;4.93;4.43;;;10.10;96.80;;;;;;5033918;28;20182;-63
2022/12/08 09:32:52;;;;;;;5.87;5.37;;;10.20;97.90;;;;;;5033746;28;20184;-63
2022/12/08 09:35:17;;;;;;;6.20;5.20;;;10.40;97.60;;;;;;5033809;28;20245;-63
2022/12/08 09:37:43;;;;;;;7.13;5.40;;;10.70;97.20;;;;;;5034049;28;20333;-63
2022/12/08 09:40:14;;;;;;;4.90;4.40;;;10.90;95.80;;;;;;5033879;28;20223;-62
2022/12/08 09:43:30;;;;;;;5.27;4.40;;;11.10;94.80;;;;;;5033699;28;20196;-64
2022/12/08 09:45:56;;;;;;;5.93;5.10;;;11.30;94.70;;;;;;5027244;28;20459;-64
2022/12/08 09:48:29;;;;;;;6.03;4.83;;;11.50;93.90;;;;;;5033736;28;20452;-63
2022/12/08 09:50:57;;;;;;;5.03;4.57;;;11.40;93.70;;;;;;5033874;28;20413;-63
2022/12/08 09:53:27;;;;;;;6.80;5.73;;;11.20;94.10;;;;;;5038713;28;20424;-64
2022/12/08 09:55:56;;;;;;;6.00;5.20;;;11.20;93.90;;;;;;5053350;28;20399;-64
2022/12/08 09:59:07;;;;;;;5.50;4.77;;;11.20;93.70;;;;;;5053409;28;20751;-64
2022/12/08 10:01:37;;;;;;;5.60;5.10;;;11.30;93.90;;;;;;5036027;28;20471;-62
2022/12/08 10:04:04;;;;;;;6.67;4.83;;;11.40;93.10;;;;;;5052864;28;20469;-63
2022/12/08 10:06:44;;;;;;;6.80;5.40;;;11.40;93.30;;;;;;5053470;28;20434;-63
2022/12/08 10:09:28;;;;;;;5.53;4.50;;;11.30;93.40;;;;;;5053464;28;20417;-63
2022/12/08 10:11:58;;;;;;;4.87;4.47;;;11.10;93.40;;;;;;5053354;28;20488;-63
2022/12/08 10:14:44;;;;;;;5.13;4.07;;;11.00;93.90;;;;;;5052839;28;20398;-63
2022/12/08 10:17:49;;;;;;;3.80;3.50;;;10.90;93.40;;;;;;5032394;28;20969;-63
2022/12/08 10:20:15;;;;;;;4.17;3.57;;;10.90;92.40;;;;;;5033131;28;20870;-62
2022/12/08 10:22:41;;;;;;;4.40;4.00;;;10.90;92.50;;;;;;5032952;28;20405;-63
2022/12/08 10:25:26;;;;;;;4.60;3.40;;;10.80;92.20;;;;;;5033014;28;20455;-64
2022/12/08 10:27:53;;;;;;;3.60;2.93;;;10.80;92.80;;;;;;5032066;28;20420;-63
2022/12/08 10:30:20;;;;;;;3.70;3.40;;;11.00;92.50;;;;;;5033222;28;20452;-64
2022/12/08 10:32:52;;;;;;;3.83;3.53;;;11.10;92.30;;;;;;5032994;28;20836;-64
2022/12/08 10:35:21;;;;;;;4.17;3.77;;;11.20;92.10;;;;;;5033357;28;20448;-64
2022/12/08 10:38:01;;;;;;;3.73;3.43;;;11.30;92.40;;;;;;5033210;28;20432;-63
2022/12/08 10:40:33;;;;;;;5.23;3.60;;;11.20;91.90;;;;;;5036448;28;20976;-63
2022/12/08 10:42:59;;;;;;;4.97;3.60;;;11.00;91.90;;;;;;5032977;28;20413;-64
2022/12/08 10:45:27;;;;;;;4.30;3.90;;;10.90;91.90;;;;;;5032963;28;20790;-64
2022/12/08 10:48:17;;;;;;;4.53;3.83;;;10.80;91.60;;;;;;5033029;28;20401;-63
2022/12/08 10:50:52;;;;;;;3.63;3.30;;;10.70;92.00;;;;;;5033373;28;20754;-64
2022/12/08 10:53:30;;;;;;;3.73;3.43;;;10.40;92.30;;;;;;5032944;28;20441;-64
2022/12/08 10:56:15;;;;;;;2.83;2.63;;;10.20;91.90;;;;;;5033352;28;20424;-64
2022/12/08 10:58:43;;;;;;;4.40;3.67;;;9.90;92.90;;;;;;5032950;28;20431;-62
2022/12/08 11:01:31;;;;;;;2.90;2.70;;;9.70;93.30;;;;;;5032940;28;20487;-64
2022/12/08 11:04:00;;;;;;;3.53;3.23;;;9.30;94.00;;;;;;5032408;28;20427;-63
2022/12/08 11:06:34;;;;;;;3.30;3.00;;;9.00;94.50;;;;;;5033440;28;20471;-64
2022/12/08 11:09:03;;;;;;;3.33;3.03;;;8.60;95.10;;;;;;5036801;28;20416;-62
2022/12/08 11:11:49;;;;;;;3.03;2.70;;;8.20;95.50;;;;;;5036687;28;20205;-64
2022/12/08 11:14:23;;;;;;;6.18;2.85;;;7.70;96.20;;;;;;5036116;28;20277;-65
2022/12/08 11:16:52;;;;;;;2.90;2.70;;;7.40;97.30;;;;;;5036674;28;20185;-63
2022/12/08 11:19:19;;;;;;;2.83;2.30;;;7.10;98.70;;;;;;5036398;28;20590;-64
2022/12/08 11:21:46;;;;;;;3.13;2.85;;;7.00;99.30;;;;;;5036639;28;20163;-64
2022/12/08 11:24:14;;;;;;;4.68;3.00;;;7.00;99.20;;;;;;5035745;28;20189;-63
2022/12/08 11:26:45;;;;;;;3.33;2.70;;;7.00;99.90;;;;;;5036290;28;20170;-63
2022/12/08 11:29:11;;;;;;;3.38;3.08;;;7.00;99.80;;;;;;5036470;28;20542;-64
2022/12/08 11:31:48;;;;;;;2.28;2.17;;;7.10;99.90;;;;;;5036142;28;20247;-65
2022/12/08 11:34:22;;;;;;;2.50;2.30;;;7.10;99.90;;;;;;5035941;28;20186;-64
2022/12/08 11:36:50;;;;;;;4.00;3.22;;;7.20;99.90;;;;;;5036296;28;20170;-64
2022/12/08 11:39:16;;;;;;;2.10;1.88;;;7.20;99.80;;;;;;5056252;28;20229;-64
2022/12/08 11:41:44;;;;;;;2.93;2.83;;;7.30;99.90;;;;;;5055973;28;20227;-64
2022/12/08 11:44:51;;;;;;;3.67;2.83;;;7.50;98.70;;;;;;5055691;28;20530;-64
2022/12/08 11:47:44;;;;;;;2.67;2.47;;;7.60;97.90;;;;;;5043711;28;20235;-63
2022/12/08 11:50:23;;;;;;;2.67;2.45;;;7.60;98.20;;;;;;5051552;28;20185;-64
2022/12/08 11:52:51;;;;;;;2.30;2.10;;;7.50;97.90;;;;;;5055259;28;20531;-64
2022/12/08 11:55:40;;;;;;;2.72;2.50;;;7.40;98.20;;;;;;5055897;28;20219;-63
2022/12/08 11:58:35;;;;;;;4.05;3.08;;;7.30;98.40;;;;;;5055763;28;20187;-63
2022/12/08 12:01:00;;;;;;;3.03;2.13;;;7.20;97.90;;;;;;5055540;28;20205;-64
2022/12/08 12:03:35;;;;;;;2.93;2.17;;;7.20;97.90;;;;;;5055211;28;20176;-63
2022/12/08 12:06:03;;;;;;;2.50;2.30;;;7.00;98.00;;;;;;5055752;28;20168;-64
2022/12/08 12:08:43;;;;;;;2.88;2.67;;;6.90;98.30;;;;;;5055248;28;20537;-63
2022/12/08 12:14:17;;;;;;;3.33;2.97;;;6.60;99.90;;;;;;5034986;28;20217;-62
2022/12/08 12:16:58;;;;;;;4.20;3.50;;;6.60;99.80;;;;;;5035494;28;20173;-63
2022/12/08 12:19:26;;;;;;;2.55;2.35;;;6.60;99.20;;;;;;5034966;28;20177;-63
2022/12/08 12:21:55;;;;;;;2.30;2.08;;;6.60;99.40;;;;;;5035331;28;20269;-63
2022/12/08 12:24:35;;;;;;;2.65;2.45;;;6.50;99.60;;;;;;5034726;28;20190;-64
2022/12/08 12:27:28;;;;;;;3.15;2.70;;;6.40;99.90;;;;;;5035303;28;20173;-63
2022/12/08 12:29:59;;;;;;;3.30;2.75;;;6.30;99.90;;;;;;5035430;28;20650;-63
2022/12/08 12:32:38;;;;;;;3.92;3.38;;;6.30;99.90;;;;;;5035126;28;20223;-63
2022/12/08 12:35:13;;;;;;;4.25;3.38;;;6.30;99.90;;;;;;5034804;28;20603;-63
2022/12/08 12:37:41;;;;;;;3.05;2.03;;;6.30;99.90;;;;;;5035129;28;20176;-63
2022/12/08 12:40:32;;;;;;;3.20;2.50;;;6.20;99.90;;;;;;5034989;28;20675;-63
2022/12/08 12:43:01;;;;;;;2.47;2.28;;;6.30;99.90;;;;;;5034489;28;20170;-63
2022/12/08 12:45:31;;;;;;;3.58;2.63;;;6.40;99.90;;;;;;5034941;28;20300;-63
2022/12/08 12:48:00;;;;;;;2.75;2.42;;;6.40;99.90;;;;;;5034996;28;20210;-63
2022/12/08 12:50:48;;;;;;;3.10;2.70;;;6.50;99.90;;;;;;5034895;28;20183;-62
2022/12/08 12:53:17;;;;;;;3.42;2.35;;;6.50;99.90;;;;;;5034250;28;20187;-63
2022/12/08 12:55:45;;;;;;;2.95;2.05;;;6.60;99.90;;;;;;5034432;28;20540;-63
2022/12/08 12:58:29;;;;;;;2.28;2.00;;;6.60;99.60;;;;;;5034748;28;20176;-63
2022/12/08 13:01:10;;;;;;;3.53;2.97;;;6.60;99.60;;;;;;5034342;28;20195;-65
2022/12/08 13:03:44;;;;;;;2.63;2.30;;;6.50;99.90;;;;;;5034363;28;20170;-63
2022/12/08 13:06:13;;;;;;;2.45;1.95;;;6.50;99.90;;;;;;5034404;28;20174;-63
2022/12/08 13:08:51;;;;;;;2.70;2.00;;;6.50;99.90;;;;;;5034442;28;20227;-62
2022/12/08 13:11:17;;;;;;;3.63;3.33;;;6.50;99.90;;;;;;5034229;28;20228;-63
2022/12/08 13:14:02;;;;;;;3.97;3.57;;;6.40;99.90;;;;;;5034010;28;20225;-63
2022/12/08 13:16:33;;;;;;;3.42;3.08;;;6.50;99.90;;;;;;5034181;28;20417;-63
2022/12/08 13:19:02;;;;;;;2.38;2.15;;;6.40;99.90;;;;;;5034378;28;20176;-62
2022/12/08 13:21:36;;;;;;;2.97;2.30;;;6.40;99.90;;;;;;5034048;28;20525;-63
2022/12/08 13:24:18;;;;;;;4.28;2.72;;;6.40;99.90;;;;;;5033827;28;20201;-63
2022/12/08 13:26:49;;;;;;;2.65;2.45;;;6.40;99.90;;;;;;5034118;28;20173;-62
2022/12/08 13:29:21;;;;;;;2.75;2.40;;;6.40;99.90;;;;;;5033785;28;20580;-63
2022/12/08 13:31:55;;;;;;;2.65;2.45;;;6.30;99.90;;;;;;5034931;28;20634;-62
2022/12/08 13:34:40;;;;;;;2.38;2.15;;;6.30;99.90;;;;;;5053565;28;20181;-62
2022/12/08 13:37:12;;;;;;;2.70;2.35;;;6.20;99.90;;;;;;5054017;28;20179;-63
2022/12/08 13:39:38;;;;;;;3.67;2.10;;;6.20;99.90;;;;;;5053977;28;20181;-62
2022/12/08 13:42:34;;;;;;;1.97;1.87;;;6.20;99.90;;;;;;5040007;28;20178;-62
2022/12/08 13:45:24;;;;;;;1.60;1.50;;;6.20;99.90;;;;;;5033650;28;20194;-64
2022/12/08 13:47:58;;;;;;;2.42;1.88;;;6.10;99.90;;;;;;5033959;28;20183;-63
2022/12/08 13:50:32;;;;;;;3.47;2.70;;;6.00;99.90;;;;;;5033909;28;20181;-61
2022/12/08 13:53:01;;;;;;;3.92;2.65;;;6.00;99.90;;;;;;5033201;28;20182;-63
2022/12/08 13:55:38;;;;;;;3.00;2.22;;;5.90;99.90;;;;;;5033462;28;20194;-65
2022/12/08 13:58:04;;;;;;;4.07;2.55;;;5.80;99.90;;;;;;5033773;28;20180;-62
2022/12/08 14:00:30;;;;;;;4.03;2.00;;;5.80;99.90;;;;;;5033536;28;20203;-62
2022/12/08 14:02:59;;;;;;;2.50;2.27;;;5.80;99.90;;;;;;5033388;28;20473;-66
2022/12/08 14:05:27;;;;;;;2.92;2.47;;;5.70;99.90;;;;;;5033652;28;20198;-63
2022/12/08 14:07:55;;;;;;;3.67;2.22;;;5.70;99.90;;;;;;5033461;28;20172;-63
2022/12/08 14:10:30;;;;;;;2.97;2.58;;;5.60;99.90;;;;;;5038016;28;20166;-62
2022/12/08 14:13:02;;;;;;;2.40;2.30;;;5.60;99.90;;;;;;5050641;28;20177;-63
2022/12/08 14:15:31;;;;;;;3.33;2.33;;;5.60;99.90;;;;;;5035787;28;20210;-62
2022/12/08 14:17:57;;;;;;;3.15;2.38;;;5.50;99.90;;;;;;5056818;28;20238;-64
2022/12/08 14:20:28;;;;;;;6.18;3.53;;;5.50;99.90;;;;;;5037363;28;20226;-62
2022/12/08 14:22:55;;;;;;;2.95;2.75;;;5.40;99.90;;;;;;5033536;28;20540;-64
2022/12/08 14:25:22;;;;;;;2.60;2.40;;;5.40;99.90;;;;;;5034681;28;20218;-62
2022/12/08 14:27:49;;;;;;;3.17;2.67;;;5.40;99.90;;;;;;5041958;28;20184;-62
2022/12/08 14:30:19;;;;;;;3.03;2.80;;;5.30;99.90;;;;;;5053154;28;20181;-62
2022/12/08 14:32:51;;;;;;;2.95;2.55;;;5.30;99.90;;;;;;5043406;28;20201;-63
2022/12/08 14:35:24;;;;;;;2.47;2.30;;;5.30;99.90;;;;;;5044138;28;20193;-62
2022/12/08 14:37:54;;;;;;;2.15;2.00;;;5.20;99.90;;;;;;5033477;28;20707;-63
2022/12/08 14:40:43;;;;;;;2.58;2.10;;;5.20;99.90;;;;;;5049064;28;20206;-62
2022/12/08 14:43:08;;;;;;;2.80;2.50;;;5.20;99.90;;;;;;5056244;28;20226;-63
2022/12/08 14:45:40;;;;;;;4.67;3.20;;;5.10;99.90;;;;;;5057116;28;20721;-63
2022/12/08 14:48:21;;;;;;;3.67;2.38;;;5.00;99.90;;;;;;5047562;28;20588;-62
2022/12/08 14:51:03;;;;;;;3.58;2.75;;;5.00;99.90;;;;;;5057196;28;20562;-61
2022/12/08 14:53:49;;;;;;;4.20;3.38;;;4.90;99.90;;;;;;5055094;28;20224;-63
2022/12/08 14:56:23;;;;;;;3.17;2.22;;;4.90;99.90;;;;;;5052346;28;20706;-63
2022/12/08 14:59:01;;;;;;;2.33;2.22;;;5.00;99.90;;;;;;5056867;28;20218;-62
2022/12/08 15:01:27;;;;;;;2.20;1.80;;;5.00;99.90;;;;;;5056670;28;20202;-64
2022/12/08 15:04:19;;;;;;;2.60;2.40;;;4.90;99.90;;;;;;5056166;28;20198;-61
2022/12/08 15:07:03;;;;;;;2.75;2.22;;;4.90;99.90;;;;;;5056369;28;20421;-63
2022/12/08 15:09:37;;;;;;;2.88;1.77;;;4.90;99.90;;;;;;5056776;28;20694;-64
2022/12/08 15:12:22;;;;;;;2.67;2.47;;;4.90;99.90;;;;;;5056129;28;20255;-63
2022/12/08 15:14:57;;;;;;;2.58;2.28;;;4.80;99.90;;;;;;5056038;28;20226;-63
2022/12/08 15:17:40;;;;;;;2.58;2.35;;;4.80;99.90;;;;;;5056551;28;20173;-62
2022/12/08 15:20:24;;;;;;;2.60;2.40;;;4.80;99.90;;;;;;5056056;28;20205;-63
2022/12/08 15:22:50;;;;;;;2.10;1.90;;;4.80;99.90;;;;;;5055997;28;20171;-63
2022/12/08 15:25:16;;;;;;;2.95;2.47;;;4.80;99.90;;;;;;5037344;28;20209;-62
2022/12/08 15:27:41;;;;;;;3.10;2.30;;;4.80;99.90;;;;;;5036211;28;20210;-62
2022/12/08 15:30:17;;;;;;;3.93;3.40;;;4.70;99.90;;;;;;5036409;28;20449;-62
2022/12/08 15:32:43;;;;;;;2.38;2.17;;;4.70;99.90;;;;;;5035872;28;20179;-63
2022/12/08 15:35:14;;;;;;;3.90;2.70;;;4.70;99.90;;;;;;5049029;28;20205;-61
2022/12/08 15:37:40;;;;;;;3.88;2.92;;;4.70;99.90;;;;;;5036326;28;20176;-62
2022/12/08 15:40:15;;;;;;;4.95;2.90;;;4.60;99.90;;;;;;5036116;28;20259;-64
2022/12/08 15:42:40;;;;;;;6.30;2.83;;;4.50;99.90;;;;;;5036039;28;20173;-62
2022/12/08 15:45:10;;;;;;;2.20;2.10;;;4.50;99.90;;;;;;5050579;28;20197;-61
2022/12/08 15:47:35;;;;;;;2.22;2.00;;;4.50;99.90;;;;;;5053782;28;20169;-62
2022/12/08 15:50:03;;;;;;;6.40;3.90;;;4.50;99.90;;;;;;5036102;28;20176;-63
2022/12/08 15:52:28;;;;;;;4.13;2.88;;;4.50;99.90;;;;;;5035434;28;20205;-71
2022/12/08 15:54:54;;;;;;;2.93;2.57;;;4.50;99.90;;;;;;5035437;28;20228;-68
2022/12/08 15:57:28;;;;;;;2.50;1.70;;;4.40;99.90;;;;;;5036141;28;20220;-67
2022/12/08 15:59:54;;;;;;;3.75;2.40;;;4.40;99.90;;;;;;5035851;28;20194;-68
2022/12/08 16:02:19;;;;;;;2.30;2.10;;;4.40;99.90;;;;;;5036151;28;20177;-67
2022/12/08 16:04:46;;;;;;;2.17;2.07;;;4.40;99.90;;;;;;5050037;28;20431;-67
2022/12/08 16:07:24;;;;;;;6.82;3.20;;;4.40;99.90;;;;;;5035472;28;20224;-67
2022/12/08 16:09:50;;;;;;;3.40;3.20;;;4.50;99.90;;;;;;5035670;28;20215;-67
2022/12/08 16:15:07;;;;;;;2.55;2.35;;;4.50;99.90;;;;;;5049956;28;20840;-66
2022/12/08 16:17:33;;;;;;;2.75;2.55;;;4.40;99.90;;;;;;5035670;28;20545;-65
2022/12/08 16:20:00;;;;;;;3.78;2.63;;;4.30;99.90;;;;;;5037789;28;20198;-66
2022/12/08 16:22:30;;;;;;;5.45;3.20;;;4.30;99.90;;;;;;5045477;28;20193;-67
2022/12/08 16:24:56;;;;;;;4.20;3.80;;;4.30;99.90;;;;;;5055019;28;20182;-65
2022/12/08 16:27:37;;;;;;;3.20;2.40;;;4.30;99.90;;;;;;5055834;28;20527;-65
2022/12/08 16:30:07;;;;;;;2.88;2.67;;;4.30;99.90;;;;;;5055181;28;20264;-67
2022/12/08 16:32:32;;;;;;;3.40;2.83;;;4.30;99.90;;;;;;5053757;28;20672;-64
2022/12/08 16:34:58;;;;;;;3.43;2.40;;;4.30;99.90;;;;;;5034675;28;20201;-64
2022/12/08 16:37:26;;;;;;;4.63;2.90;;;4.30;99.90;;;;;;5034530;28;20266;-63
2022/12/08 16:39:53;;;;;;;2.90;2.60;;;4.30;99.90;;;;;;5034760;28;20202;-64
2022/12/08 16:45:13;;;;;;;4.20;2.70;;;4.20;99.90;;;;;;5054646;28;20691;-64
2022/12/08 16:47:45;;;;;;;4.15;2.90;;;4.30;99.90;;;;;;5037934;28;20515;-63
2022/12/08 16:50:16;;;;;;;2.50;2.30;;;4.30;99.90;;;;;;5034684;28;20178;-64
2022/12/08 16:52:43;;;;;;;2.25;1.83;;;4.40;99.90;;;;;;5037558;28;20647;-64
2022/12/08 16:55:16;;;;;;;9.82;4.45;;;4.40;99.90;;;;;;5054429;28;20255;-64
2022/12/08 16:57:42;;;;;;;2.72;2.15;;;4.30;99.90;;;;;;5054586;28;20166;-63
2022/12/08 17:00:12;;;;;;;4.47;2.97;;;4.30;99.90;;;;;;5054261;28;20194;-62
2022/12/08 17:02:38;;;;;;;2.65;2.40;;;4.30;99.90;;;;;;5053575;28;20255;-62
2022/12/08 17:05:04;;;;;;;2.63;2.43;;;4.30;99.90;;;;;;5046724;28;20669;-62
2022/12/08 17:07:30;;;;;;;4.20;3.25;;;4.30;99.90;;;;;;5034491;28;20179;-62
2022/12/08 17:09:56;;;;;;;5.27;3.47;;;4.30;99.90;;;;;;5034392;28;20528;-62
2022/12/08 17:12:22;;;;;;;4.45;3.10;;;4.20;99.90;;;;;;5036465;28;20261;-63
2022/12/08 17:14:47;;;;;;;5.20;3.13;;;4.20;99.90;;;;;;5053459;28;20600;-62
2022/12/08 17:17:13;;;;;;;3.30;3.00;;;4.20;99.90;;;;;;5051593;28;20211;-64
2022/12/08 17:19:39;;;;;;;3.30;2.70;;;4.20;99.90;;;;;;5033640;28;20201;-62
2022/12/08 17:22:04;;;;;;;2.73;2.50;;;4.20;99.90;;;;;;5034369;28;20175;-62
2022/12/08 17:24:30;;;;;;;2.97;2.40;;;4.30;99.90;;;;;;5033703;28;20675;-64
2022/12/08 17:26:57;;;;;;;5.38;4.68;;;4.20;99.90;;;;;;5034158;28;20259;-64
2022/12/08 17:29:23;;;;;;;3.92;2.72;;;4.20;99.90;;;;;;5035603;28;20217;-63
2022/12/08 17:31:50;;;;;;;10.80;7.30;;;4.20;99.90;;;;;;5052024;28;20721;-62
2022/12/08 17:34:15;;;;;;;3.60;3.15;;;4.20;99.90;;;;;;5053062;28;20189;-63
2022/12/08 17:36:41;;;;;;;2.87;2.63;;;4.20;99.90;;;;;;5041586;28;20191;-63
2022/12/08 17:39:09;;;;;;;5.10;4.13;;;4.20;99.90;;;;;;5050453;28;20211;-62
2022/12/08 17:41:35;;;;;;;5.60;2.83;;;4.20;99.90;;;;;;5053434;28;20206;-62
2022/12/08 17:44:00;;;;;;;3.70;3.30;;;4.20;99.90;;;;;;5052736;28;20193;-62
2022/12/08 17:46:26;;;;;;;3.27;2.97;;;4.20;99.90;;;;;;5053334;28;20516;-61
2022/12/08 17:48:52;;;;;;;3.27;2.53;;;4.10;99.90;;;;;;5033977;28;20205;-61
2022/12/08 17:51:18;;;;;;;5.00;3.50;;;4.10;99.90;;;;;;5035391;28;20183;-62
2022/12/08 17:53:44;;;;;;;5.20;3.97;;;4.10;99.90;;;;;;5050028;28;20437;-63
2022/12/08 17:56:19;;;;;;;3.13;2.90;;;4.10;99.90;;;;;;5053414;28;20566;-60
2022/12/08 17:58:46;;;;;;;4.07;3.65;;;4.10;99.90;;;;;;5053263;28;20172;-61
2022/12/08 18:01:11;;;;;;;5.60;2.92;;;4.10;99.90;;;;;;5053105;28;20231;-62
2022/12/08 18:03:38;;;;;;;3.33;3.00;;;4.10;99.90;;;;;;5032737;28;20181;-62
2022/12/08 18:06:11;;;;;;;3.55;3.25;;;4.10;99.90;;;;;;5033481;28;20500;-60
2022/12/08 18:08:37;;;;;;;6.47;2.55;;;4.10;99.90;;;;;;5033548;28;20172;-62
2022/12/08 18:11:03;;;;;;;7.57;5.40;;;4.20;99.90;;;;;;5033553;28;20179;-62
2022/12/08 18:13:29;;;;;;;7.97;5.18;;;4.20;99.90;;;;;;5033084;28;20171;-63
2022/12/08 18:15:55;;;;;;;6.15;5.45;;;4.20;99.90;;;;;;5033280;28;20173;-60
2022/12/08 18:18:21;;;;;;;6.23;3.83;;;4.20;99.90;;;;;;5033484;28;20187;-63
2022/12/08 18:20:48;;;;;;;4.88;4.38;;;4.20;99.90;;;;;;5033301;28;20214;-61
2022/12/08 18:23:14;;;;;;;5.05;3.22;;;4.20;99.90;;;;;;5033039;28;20249;-60
2022/12/08 18:25:40;;;;;;;4.28;2.67;;;4.20;99.90;;;;;;5033275;28;20281;-61
2022/12/08 18:28:06;;;;;;;3.77;3.37;;;4.20;99.90;;;;;;5033138;28;20209;-62